Time;durP1;ratioP1;P1;durP2;ratioP2;P2;SDS_P1;SDS_P2;PMS_P1;PMS_P2;Temp;Humidity;BMP_temperature;BMP_pressure;BME280_temperature;BME280_humidity;BME280_pressure;Samples;Min_cycle;Max_cycle;Signal;HPM_P1;HPM_P2
2023/10/27 00:00:37;;;;;;;81.00;40.53;;;;;;;9.03;100.00;99026.53;5085161;28;20024;-77
2023/10/27 00:03:02;;;;;;;79.85;40.38;;;;;;;9.09;100.00;99026.94;5075798;28;20040;-78
2023/10/27 00:05:28;;;;;;;81.72;41.10;;;;;;;9.10;100.00;99027.78;5093069;28;20020;-77
2023/10/27 00:07:53;;;;;;;82.78;42.05;;;;;;;9.09;100.00;99026.09;5083550;28;20862;-77
2023/10/27 00:10:19;;;;;;;82.90;42.33;;;;;;;9.08;100.00;99029.72;5073715;28;20537;-77
2023/10/27 00:12:44;;;;;;;81.65;40.67;;;;;;;9.08;100.00;99021.78;5082850;28;20031;-76
2023/10/27 00:15:10;;;;;;;85.57;41.38;;;;;;;9.07;100.00;99022.72;5078485;28;20636;-76
2023/10/27 00:17:35;;;;;;;81.78;41.58;;;;;;;9.06;100.00;99031.63;5085383;28;20031;-76
2023/10/27 00:20:05;;;;;;;79.63;40.80;;;;;;;9.05;100.00;99020.19;5089260;28;20028;-77
2023/10/27 00:22:32;;;;;;;78.93;41.83;;;;;;;8.97;100.00;99006.63;5082361;28;20034;-76
2023/10/27 00:25:01;;;;;;;83.20;41.45;;;;;;;9.01;100.00;99016.06;5079796;28;20062;-78
2023/10/27 00:27:27;;;;;;;74.28;39.97;;;;;;;9.01;100.00;99013.41;5063008;28;20572;-74
2023/10/27 00:29:52;;;;;;;84.18;41.67;;;;;;;9.03;100.00;99019.47;5079289;28;20036;-77
2023/10/27 00:32:18;;;;;;;77.50;39.97;;;;;;;8.99;100.00;99015.34;5068790;28;20482;-76
2023/10/27 00:34:43;;;;;;;76.68;39.30;;;;;;;9.01;100.00;99017.88;5084333;28;20039;-77
2023/10/27 00:37:08;;;;;;;75.45;39.47;;;;;;;8.99;100.00;99010.03;5074451;28;20029;-78
2023/10/27 00:39:34;;;;;;;80.93;41.95;;;;;;;8.95;100.00;99004.09;5063240;28;20029;-75
2023/10/27 00:41:59;;;;;;;76.90;39.45;;;;;;;8.93;100.00;98998.03;5067546;28;20047;-76
2023/10/27 00:44:25;;;;;;;73.68;39.90;;;;;;;8.96;100.00;98996.97;5068362;28;20039;-77
2023/10/27 00:46:55;;;;;;;76.32;39.85;;;;;;;8.97;100.00;98993.34;5081363;28;20082;-77
2023/10/27 00:49:20;;;;;;;73.10;39.00;;;;;;;8.97;100.00;98998.66;5079231;28;20061;-77
2023/10/27 00:51:46;;;;;;;68.97;39.10;;;;;;;8.97;100.00;98996.84;5078291;28;20273;-80
2023/10/27 00:54:15;;;;;;;75.43;37.50;;;;;;;8.98;100.00;98997.69;5078850;28;20032;-76
2023/10/27 00:56:42;;;;;;;70.68;37.83;;;;;;;9.01;100.00;99004.59;5068764;28;20031;-77
2023/10/27 00:59:08;;;;;;;68.40;38.25;;;;;;;8.96;100.00;98992.50;5068527;28;20111;-75
2023/10/27 01:01:34;;;;;;;67.95;36.88;;;;;;;9.04;100.00;99001.72;5088228;28;20046;-77
2023/10/27 01:03:59;;;;;;;69.43;37.40;;;;;;;8.99;100.00;98986.16;5074527;28;20502;-78
2023/10/27 01:06:25;;;;;;;67.55;37.22;;;;;;;9.04;100.00;98991.09;5082127;28;20506;-78
2023/10/27 01:08:52;;;;;;;62.42;37.00;;;;;;;9.04;100.00;99001.72;5089443;28;20024;-76
2023/10/27 01:11:18;;;;;;;66.18;36.60;;;;;;;9.04;100.00;98996.41;5076657;28;20024;-74
2023/10/27 01:13:44;;;;;;;57.15;34.42;;;;;;;8.99;100.00;98975.53;5095442;28;20027;-79
2023/10/27 01:16:09;;;;;;;60.42;33.83;;;;;;;9.05;100.00;98992.78;5087174;28;20028;-76
2023/10/27 01:18:35;;;;;;;53.30;33.90;;;;;;;9.04;100.00;98985.81;5084980;28;20067;-78
2023/10/27 01:21:00;;;;;;;52.95;33.20;;;;;;;9.05;100.00;98992.78;5088040;28;20103;-78
2023/10/27 01:23:26;;;;;;;60.33;33.45;;;;;;;9.05;100.00;98995.44;5091094;28;20025;-75
2023/10/27 01:25:52;;;;;;;53.72;33.03;;;;;;;9.03;100.00;98987.63;5069437;28;20024;-77
2023/10/27 01:28:17;;;;;;;53.15;32.75;;;;;;;9.04;100.00;98984.00;5082039;28;20447;-74
2023/10/27 01:30:42;;;;;;;51.28;31.10;;;;;;;9.04;100.00;98985.81;5089595;28;20024;-76
2023/10/27 01:33:08;;;;;;;53.13;31.15;;;;;;;8.95;100.00;98977.56;5088464;28;20028;-77
2023/10/27 01:35:35;;;;;;;48.65;30.02;;;;;;;9.04;100.00;98985.81;5100594;28;20059;-77
2023/10/27 01:38:00;;;;;;;49.88;30.45;;;;;;;9.01;100.00;98975.41;5079835;28;20189;-78
2023/10/27 01:40:28;;;;;;;49.95;29.50;;;;;;;9.01;100.00;98980.72;5089694;28;20525;-77
2023/10/27 01:42:53;;;;;;;47.58;29.70;;;;;;;9.00;100.00;98973.72;5084122;28;20056;-75
2023/10/27 01:45:19;;;;;;;45.47;29.17;;;;;;;9.00;100.00;98979.88;5081119;28;20521;-78
2023/10/27 01:47:44;;;;;;;44.88;28.60;;;;;;;8.95;100.00;98971.41;5095659;28;20423;-77
2023/10/27 01:50:09;;;;;;;43.28;27.65;;;;;;;9.01;100.00;98978.06;5085059;28;20034;-77
2023/10/27 01:52:35;;;;;;;48.03;28.05;;;;;;;9.00;100.00;98974.56;5068124;28;20604;-76
2023/10/27 01:55:00;;;;;;;37.75;24.30;;;;;;;9.01;100.00;98978.06;5086244;28;20031;-78
2023/10/27 01:57:25;;;;;;;46.20;26.02;;;;;;;9.02;100.00;98975.28;5083185;28;20043;-76
2023/10/27 01:59:51;;;;;;;46.10;25.80;;;;;;;9.00;100.00;98974.56;5087795;28;20040;-76
2023/10/27 02:02:16;;;;;;;39.33;25.08;;;;;;;9.01;100.00;98970.94;5080600;28;20020;-77
2023/10/27 02:04:42;;;;;;;41.38;24.33;;;;;;;9.01;100.00;98970.09;5081359;28;20498;-76
2023/10/27 02:07:08;;;;;;;39.53;23.30;;;;;;;9.00;100.00;98969.25;5077039;28;20498;-78
2023/10/27 02:09:33;;;;;;;34.80;24.08;;;;;;;9.01;100.00;98970.09;5076204;28;20020;-74
2023/10/27 02:11:58;;;;;;;41.33;24.38;;;;;;;8.99;100.00;98964.91;5085901;28;20500;-77
2023/10/27 02:14:26;;;;;;;41.75;24.92;;;;;;;9.02;100.00;98962.00;5078886;28;20029;-78
2023/10/27 02:16:53;;;;;;;39.65;24.73;;;;;;;9.03;100.00;98960.19;5078868;28;20501;-75
2023/10/27 02:19:18;;;;;;;39.60;23.75;;;;;;;9.03;100.00;98954.91;5076981;28;20029;-78
2023/10/27 02:21:45;;;;;;;43.95;23.90;;;;;;;9.04;100.00;98957.44;5077587;28;20522;-73
2023/10/27 02:24:11;;;;;;;36.00;24.00;;;;;;;9.01;100.00;98954.19;5099636;28;20027;-77
2023/10/27 02:26:36;;;;;;;40.58;22.80;;;;;;;9.01;100.00;98954.19;5074149;28;20023;-76
2023/10/27 02:29:02;;;;;;;36.30;22.08;;;;;;;8.98;100.00;98952.59;5071534;28;20020;-77
2023/10/27 02:31:28;;;;;;;39.65;22.63;;;;;;;8.96;100.00;98947.41;5081262;27;20027;-73
2023/10/27 02:33:53;;;;;;;36.72;21.67;;;;;;;8.94;100.00;98946.66;5073952;28;20462;-77
2023/10/27 02:36:19;;;;;;;40.13;22.50;;;;;;;8.95;100.00;98950.19;5083396;28;20063;-73
2023/10/27 02:38:44;;;;;;;37.38;22.13;;;;;;;8.95;100.00;98948.38;5090216;28;20490;-73
2023/10/27 02:41:11;;;;;;;40.17;23.10;;;;;;;8.95;100.00;98944.88;5081911;28;20661;-76
2023/10/27 02:43:38;;;;;;;36.15;20.80;;;;;;;8.92;100.00;98943.28;5072372;28;20444;-77
2023/10/27 02:46:05;;;;;;;36.58;20.88;;;;;;;8.90;100.00;98937.25;5095334;28;20076;-76
2023/10/27 02:48:30;;;;;;;39.10;21.77;;;;;;;8.91;100.00;98938.94;5092281;28;20443;-73
2023/10/27 02:50:56;;;;;;;40.47;21.35;;;;;;;8.90;100.00;98939.91;5087785;28;20035;-75
2023/10/27 02:53:22;;;;;;;32.67;21.38;;;;;;;8.88;100.00;98933.84;5083605;28;20024;-74
2023/10/27 02:55:47;;;;;;;34.50;20.52;;;;;;;8.89;100.00;98935.53;5083066;28;20036;-74
2023/10/27 02:58:12;;;;;;;37.50;20.42;;;;;;;8.88;100.00;98931.22;5078083;28;20103;-77
2023/10/27 03:00:44;;;;;;;33.38;19.77;;;;;;;8.90;100.00;98933.72;5069516;28;20242;-77
2023/10/27 03:03:10;;;;;;;34.50;20.33;;;;;;;8.82;100.00;98921.06;5073435;28;20068;-76
2023/10/27 03:05:36;;;;;;;38.83;20.42;;;;;;;8.89;100.00;98929.41;5090974;28;20051;-77
2023/10/27 03:08:03;;;;;;;32.63;19.50;;;;;;;8.87;100.00;98921.56;5090675;28;20024;-76
2023/10/27 03:10:28;;;;;;;35.92;19.60;;;;;;;8.84;100.00;98918.28;5084889;28;20034;-74
2023/10/27 03:12:54;;;;;;;33.35;19.15;;;;;;;8.84;100.00;98919.13;5076729;28;20364;-78
2023/10/27 03:15:19;;;;;;;32.70;18.58;;;;;;;8.87;100.00;98920.72;5083277;28;20047;-74
2023/10/27 03:17:45;;;;;;;35.10;19.02;;;;;;;8.84;100.00;98923.59;5076116;28;20505;-77
2023/10/27 03:20:11;;;;;;;30.98;18.73;;;;;;;8.82;100.00;98921.06;5074317;28;20031;-76
2023/10/27 03:22:36;;;;;;;36.58;18.27;;;;;;;8.82;100.00;98922.84;5087091;28;20031;-77
2023/10/27 03:25:03;;;;;;;34.88;18.45;;;;;;;8.79;100.00;98917.78;5082178;28;21298;-76
2023/10/27 03:27:30;;;;;;;36.95;20.05;;;;;;;8.78;100.00;98916.94;5081706;28;20027;-74
2023/10/27 03:29:56;;;;;;;36.45;19.48;;;;;;;8.78;100.00;98918.72;5087540;28;20038;-78
2023/10/27 03:32:22;;;;;;;34.83;19.02;;;;;;;8.79;100.00;98918.63;5082685;28;20031;-76
2023/10/27 03:34:47;;;;;;;33.03;19.23;;;;;;;8.81;100.00;98919.34;5073418;28;20016;-74
2023/10/27 03:37:12;;;;;;;35.58;19.67;;;;;;;8.78;100.00;98921.38;5083567;28;22174;-76
2023/10/27 03:39:40;;;;;;;38.10;19.27;;;;;;;8.78;100.00;98919.59;5071476;28;20035;-76
2023/10/27 03:42:07;;;;;;;37.88;18.70;;;;;;;8.76;100.00;98913.53;5078435;28;20034;-78
2023/10/27 03:44:32;;;;;;;32.30;18.17;;;;;;;8.76;100.00;98913.53;5088090;28;20115;-76
2023/10/27 03:46:58;;;;;;;36.25;19.05;;;;;;;8.76;100.00;98913.53;5071589;28;20123;-74
2023/10/27 03:49:24;;;;;;;32.72;17.63;;;;;;;8.75;100.00;98919.81;5066581;28;20040;-76
2023/10/27 03:51:49;;;;;;;33.20;17.58;;;;;;;8.72;100.00;98910.28;5077791;28;20354;-73
2023/10/27 03:54:14;;;;;;;32.85;16.90;;;;;;;8.72;100.00;98912.06;5080794;28;20077;-74
2023/10/27 03:56:40;;;;;;;30.58;17.02;;;;;;;8.71;100.00;98915.69;5074970;28;20028;-75
2023/10/27 03:59:05;;;;;;;39.10;17.65;;;;;;;8.69;100.00;98907.88;5076071;28;20016;-73
2023/10/27 04:01:31;;;;;;;35.83;17.10;;;;;;;8.65;100.00;98905.53;5081866;28;20497;-76
2023/10/27 04:03:56;;;;;;;35.08;17.52;;;;;;;8.73;100.00;98914.59;5071642;28;20033;-77
2023/10/27 04:06:21;;;;;;;30.00;17.17;;;;;;;8.71;100.00;98913.88;5073307;28;20107;-74
2023/10/27 04:08:47;;;;;;;31.48;17.42;;;;;;;8.73;100.00;98905.81;5074160;28;20032;-75
2023/10/27 04:11:13;;;;;;;33.65;18.08;;;;;;;8.71;100.00;98910.41;5080750;28;20494;-76
2023/10/27 04:13:39;;;;;;;36.35;18.85;;;;;;;8.69;100.00;98899.91;5069528;28;20077;-73
2023/10/27 04:16:04;;;;;;;37.03;18.60;;;;;;;8.69;100.00;98907.88;5081869;28;20046;-77
2023/10/27 04:18:30;;;;;;;32.85;17.33;;;;;;;8.66;100.00;98908.09;5061890;28;20098;-75
2023/10/27 04:20:55;;;;;;;34.10;17.77;;;;;;;8.65;100.00;98900.22;5085667;28;20050;-75
2023/10/27 04:23:21;;;;;;;29.45;16.15;;;;;;;8.60;100.00;98905.03;5085048;28;20153;-75
2023/10/27 04:25:47;;;;;;;29.85;16.65;;;;;;;8.60;100.00;98902.38;5070803;28;20052;-75
2023/10/27 04:28:13;;;;;;;29.17;16.60;;;;;;;8.65;100.00;98913.47;5073069;28;20033;-76
2023/10/27 04:30:38;;;;;;;31.85;16.50;;;;;;;8.61;100.00;98904.94;5079158;28;20505;-73
2023/10/27 04:33:09;;;;;;;31.77;16.77;;;;;;;8.65;100.00;98906.41;5075836;28;20028;-75
2023/10/27 04:35:35;;;;;;;33.63;16.92;;;;;;;8.65;100.00;98901.09;5076595;28;20032;-76
2023/10/27 04:38:00;;;;;;;32.03;16.48;;;;;;;8.65;100.00;98901.09;5082251;28;20482;-74
2023/10/27 04:40:28;;;;;;;29.45;17.02;;;;;;;8.67;100.00;98903.63;5072209;28;20521;-76
2023/10/27 04:42:56;;;;;;;34.67;16.92;;;;;;;8.65;100.00;98902.88;5092678;28;20570;-76
2023/10/27 04:45:22;;;;;;;29.70;16.52;;;;;;;8.61;100.00;98896.97;5098914;28;20110;-76
2023/10/27 04:47:47;;;;;;;35.03;17.20;;;;;;;8.63;100.00;98904.81;5075340;27;20111;-75
2023/10/27 04:50:13;;;;;;;28.92;16.23;;;;;;;8.63;100.00;98902.16;5073450;28;20078;-76
2023/10/27 04:52:39;;;;;;;28.83;15.45;;;;;;;8.65;100.00;98903.75;5074786;28;20046;-75
2023/10/27 04:55:06;;;;;;;35.78;16.17;;;;;;;8.63;100.00;98902.16;5096203;28;20043;-77
2023/10/27 04:57:32;;;;;;;28.88;16.83;;;;;;;8.62;100.00;98890.69;5082036;28;20098;-72
2023/10/27 04:59:58;;;;;;;29.90;15.85;;;;;;;8.63;100.00;98889.75;5073781;28;20029;-74
2023/10/27 05:02:24;;;;;;;30.88;17.50;;;;;;;8.65;100.00;98894.91;5090906;28;20065;-76
2023/10/27 05:04:49;;;;;;;32.42;17.50;;;;;;;8.61;100.00;98882.84;5069422;28;20579;-74
2023/10/27 05:07:15;;;;;;;34.28;18.60;;;;;;;8.65;100.00;98889.63;5074186;28;20047;-75
2023/10/27 05:09:40;;;;;;;33.65;18.35;;;;;;;8.64;100.00;98883.47;5077356;28;20032;-77
2023/10/27 05:12:06;;;;;;;36.83;18.98;;;;;;;8.63;100.00;98880.94;5084412;28;20023;-76
2023/10/27 05:14:32;;;;;;;38.40;19.95;;;;;;;8.63;100.00;98886.25;5095343;28;20031;-77
2023/10/27 05:16:58;;;;;;;39.08;18.77;;;;;;;8.63;100.00;98881.78;5091691;28;20085;-78
2023/10/27 05:19:24;;;;;;;33.13;18.08;;;;;;;8.66;100.00;98881.56;5077988;28;20246;-75
2023/10/27 05:21:49;;;;;;;38.80;19.58;;;;;;;8.63;100.00;98883.59;5084284;28;20042;-74
2023/10/27 05:24:15;;;;;;;35.65;19.20;;;;;;;8.63;100.00;98886.25;5080216;28;20385;-78
2023/10/27 05:26:40;;;;;;;34.75;19.05;;;;;;;8.69;100.00;98881.34;5085154;28;20027;-73
2023/10/27 05:29:06;;;;;;;45.63;20.02;;;;;;;8.67;100.00;98882.41;5072942;28;20032;-77
2023/10/27 05:31:31;;;;;;;42.17;20.63;;;;;;;8.70;100.00;98883.03;5076320;28;20032;-78
2023/10/27 05:33:56;;;;;;;41.75;20.40;;;;;;;8.64;100.00;98872.00;5081912;28;20364;-77
2023/10/27 05:36:22;;;;;;;42.17;20.60;;;;;;;8.68;100.00;98876.13;5087535;28;20035;-77
2023/10/27 05:38:47;;;;;;;41.67;21.42;;;;;;;8.62;100.00;98868.66;5088738;28;20015;-77
2023/10/27 05:41:14;;;;;;;41.40;21.00;;;;;;;8.72;100.00;98885.56;5082805;28;20020;-78
2023/10/27 05:43:40;;;;;;;44.00;21.20;;;;;;;8.68;100.00;98874.31;5079802;28;20093;-77
2023/10/27 05:46:05;;;;;;;40.70;20.92;;;;;;;8.65;100.00;98876.34;5079876;28;20298;-75
2023/10/27 05:48:31;;;;;;;35.88;20.23;;;;;;;8.61;100.00;98866.94;5077250;28;20694;-79
2023/10/27 05:50:56;;;;;;;43.15;20.50;;;;;;;8.64;100.00;98872.84;5078630;28;20102;-75
2023/10/27 05:53:21;;;;;;;36.78;19.85;;;;;;;8.50;100.00;98854.47;5080064;28;20019;-77
2023/10/27 05:55:47;;;;;;;40.72;20.52;;;;;;;8.63;100.00;98870.34;5087800;28;20102;-80
2023/10/27 05:58:12;;;;;;;39.33;20.52;;;;;;;8.62;100.00;98871.31;5092719;28;20027;-78
2023/10/27 06:00:37;;;;;;;40.83;20.40;;;;;;;8.63;100.00;98865.03;5071082;28;20019;-75
2023/10/27 06:03:03;;;;;;;36.10;20.08;;;;;;;8.62;100.00;98873.94;5082784;28;20055;-79
2023/10/27 06:05:29;;;;;;;38.50;20.92;;;;;;;8.56;100.00;98869.09;5078433;28;20722;-73
2023/10/27 06:07:54;;;;;;;40.80;21.50;;;;;;;8.57;100.00;98876.06;5085533;28;20603;-79
2023/10/27 06:10:20;;;;;;;44.60;23.45;;;;;;;8.62;100.00;98876.59;5081115;28;20024;-76
2023/10/27 06:12:45;;;;;;;38.45;22.02;;;;;;;8.62;100.00;98879.25;5076362;28;20169;-74
2023/10/27 06:15:10;;;;;;;38.03;22.88;;;;;;;8.60;100.00;98875.84;5078185;28;20038;-74
2023/10/27 06:17:36;;;;;;;38.75;22.20;;;;;;;8.63;100.00;98888.91;5085465;28;20043;-75
2023/10/27 06:20:02;;;;;;;41.17;23.52;;;;;;;8.65;100.00;98881.66;5080078;28;20034;-74
2023/10/27 06:22:28;;;;;;;36.22;21.13;;;;;;;8.68;100.00;98892.03;5086360;28;20024;-75
2023/10/27 06:24:54;;;;;;;39.67;21.83;;;;;;;8.68;100.00;98892.03;5088848;28;20031;-75
2023/10/27 06:27:19;;;;;;;37.13;21.40;;;;;;;8.65;100.00;98886.97;5084359;28;20031;-74
2023/10/27 06:29:44;;;;;;;47.30;24.30;;;;;;;8.66;100.00;98880.72;5077461;28;20042;-74
2023/10/27 06:32:10;;;;;;;47.35;23.45;;;;;;;8.71;100.00;98895.31;5082679;28;20072;-76
2023/10/27 06:34:35;;;;;;;42.05;22.45;;;;;;;8.75;100.00;98892.44;5091202;28;20106;-75
2023/10/27 06:37:05;;;;;;;39.38;21.30;;;;;;;8.73;100.00;98892.53;5085558;27;20036;-74
2023/10/27 06:39:30;;;;;;;37.78;20.85;;;;;;;8.77;100.00;98893.16;5085579;28;20106;-73
2023/10/27 06:41:56;;;;;;;39.47;21.38;;;;;;;8.77;100.00;98893.16;5087441;28;20590;-74
2023/10/27 06:44:22;;;;;;;35.47;22.08;;;;;;;8.79;100.00;98893.91;5079234;28;20081;-75
2023/10/27 06:46:47;;;;;;;36.00;21.75;;;;;;;8.78;100.00;98897.50;5079459;28;20081;-74
2023/10/27 06:49:13;;;;;;;43.92;23.05;;;;;;;8.79;100.00;98896.56;5089580;28;20039;-74
2023/10/27 06:51:39;;;;;;;40.15;22.63;;;;;;;8.80;100.00;98898.25;5080349;28;20074;-75
2023/10/27 06:54:04;;;;;;;38.40;22.52;;;;;;;8.80;100.00;98899.09;5069439;28;20040;-74
2023/10/27 06:56:30;;;;;;;33.17;20.88;;;;;;;8.80;100.00;98896.44;5077968;28;20035;-75
2023/10/27 06:58:57;;;;;;;40.08;21.98;;;;;;;8.86;100.00;98906.63;5085501;28;20027;-74
2023/10/27 07:01:22;;;;;;;42.78;22.98;;;;;;;8.86;100.00;98901.31;5076183;28;20020;-74
2023/10/27 07:03:48;;;;;;;42.53;22.40;;;;;;;8.89;100.00;98909.00;5083371;28;20535;-73
2023/10/27 07:06:13;;;;;;;35.97;21.10;;;;;;;8.85;100.00;98907.53;5088015;28;20079;-75
2023/10/27 07:08:38;;;;;;;39.42;22.00;;;;;;;8.87;100.00;98912.75;5078253;28;20502;-75
2023/10/27 07:11:04;;;;;;;38.83;22.13;;;;;;;8.87;100.00;98913.59;5093701;28;20165;-75
2023/10/27 07:13:30;;;;;;;38.15;20.65;;;;;;;8.86;100.00;98922.53;5086899;28;20528;-75
2023/10/27 07:15:56;;;;;;;37.13;21.63;;;;;;;8.93;100.00;98925.56;5088296;28;20040;-75
2023/10/27 07:18:22;;;;;;;34.70;20.02;;;;;;;8.91;100.00;98924.84;5076408;28;20016;-75
2023/10/27 07:20:47;;;;;;;33.47;20.77;;;;;;;8.95;100.00;98926.31;5082642;28;20146;-74
2023/10/27 07:23:15;;;;;;;31.45;19.92;;;;;;;8.95;100.00;98929.81;5082101;28;20069;-71
2023/10/27 07:25:41;;;;;;;30.80;20.55;;;;;;;8.96;100.00;98928.00;5067761;28;20036;-74
2023/10/27 07:28:07;;;;;;;32.05;19.75;;;;;;;9.01;100.00;98927.63;5082663;28;20024;-75
2023/10/27 07:30:33;;;;;;;33.20;20.48;;;;;;;8.98;100.00;98934.00;5080603;28;20039;-74
2023/10/27 07:32:58;;;;;;;37.58;20.88;;;;;;;9.05;100.00;98931.75;5092208;28;20520;-74
2023/10/27 07:35:23;;;;;;;31.67;20.50;;;;;;;9.05;100.00;98932.59;5071962;28;20233;-73
2023/10/27 07:37:49;;;;;;;34.88;20.85;;;;;;;9.04;100.00;98932.72;5075955;28;20040;-74
2023/10/27 07:40:17;;;;;;;31.85;20.10;;;;;;;8.95;100.00;98924.50;5093535;28;20334;-74
2023/10/27 07:42:42;;;;;;;32.53;19.90;;;;;;;9.02;100.00;98938.13;5075786;28;20103;-74
2023/10/27 07:45:08;;;;;;;28.27;19.23;;;;;;;9.02;100.00;98939.94;5083122;28;20650;-76
2023/10/27 07:47:34;;;;;;;35.35;20.17;;;;;;;8.97;100.00;98934.97;5069572;28;20059;-72
2023/10/27 07:50:00;;;;;;;32.97;19.50;;;;;;;9.10;100.00;98942.88;5085375;28;20024;-74
2023/10/27 07:52:27;;;;;;;30.88;19.35;;;;;;;9.08;100.00;98944.81;5074665;28;20044;-74
2023/10/27 07:54:53;;;;;;;23.27;18.02;;;;;;;9.05;100.00;98953.84;5084611;28;20050;-73
2023/10/27 07:57:19;;;;;;;24.70;17.95;;;;;;;9.09;100.00;98946.50;5079293;28;20299;-75
2023/10/27 07:59:45;;;;;;;30.23;18.13;;;;;;;9.10;100.00;98951.69;5085346;28;20043;-74
2023/10/27 08:02:11;;;;;;;24.95;17.23;;;;;;;9.13;100.00;98948.78;5085730;28;20404;-74
2023/10/27 08:04:37;;;;;;;22.85;16.75;;;;;;;9.13;100.00;98955.91;5072843;28;20437;-74
2023/10/27 08:07:03;;;;;;;24.55;16.77;;;;;;;9.13;100.00;98961.22;5086138;28;20538;-74
2023/10/27 08:09:29;;;;;;;19.60;15.48;;;;;;;9.10;100.00;98962.28;5076386;28;20039;-73
2023/10/27 08:11:55;;;;;;;18.33;15.05;;;;;;;9.09;100.00;98965.06;5079534;28;20028;-73
2023/10/27 08:14:20;;;;;;;18.13;14.13;;;;;;;9.08;100.00;98964.22;5085749;28;20040;-74
2023/10/27 08:16:46;;;;;;;16.77;14.07;;;;;;;9.08;100.00;98966.03;5089436;28;20521;-74
2023/10/27 08:19:11;;;;;;;20.15;15.55;;;;;;;9.10;100.00;98972.06;5076199;28;20035;-74
2023/10/27 08:21:37;;;;;;;21.73;16.15;;;;;;;9.10;100.00;98972.06;5075435;28;20024;-75
2023/10/27 08:24:03;;;;;;;23.50;15.90;;;;;;;9.13;100.00;98969.19;5082262;28;20023;-74
2023/10/27 08:26:28;;;;;;;20.60;15.27;;;;;;;9.15;100.00;98976.06;5064674;28;20269;-74
2023/10/27 08:28:54;;;;;;;23.08;16.23;;;;;;;9.21;100.00;98982.72;5084853;28;20028;-73
2023/10/27 08:31:22;;;;;;;23.20;16.20;;;;;;;9.16;100.00;98976.94;5068901;28;20072;-73
2023/10/27 08:33:47;;;;;;;24.55;15.98;;;;;;;9.15;100.00;98984.03;5077479;28;20046;-73
2023/10/27 08:36:14;;;;;;;22.75;15.88;;;;;;;9.14;100.00;98978.84;5073649;28;20032;-74
2023/10/27 08:38:39;;;;;;;22.20;16.77;;;;;;;9.19;100.00;98987.28;5080024;28;20485;-74
2023/10/27 08:41:05;;;;;;;23.05;15.52;;;;;;;9.27;100.00;98986.72;5070891;28;20031;-73
2023/10/27 08:43:32;;;;;;;24.40;15.85;;;;;;;9.24;100.00;98971.91;5077292;28;20020;-73
2023/10/27 08:46:01;;;;;;;25.98;16.88;;;;;;;9.34;100.00;98983.50;5071924;28;20032;-73
2023/10/27 08:48:26;;;;;;;28.17;16.13;;;;;;;9.37;100.00;98982.44;5073508;28;20053;-73
2023/10/27 08:50:55;;;;;;;26.30;16.25;;;;;;;9.40;100.00;98987.50;5065855;28;20074;-73
2023/10/27 08:53:21;;;;;;;25.73;16.30;;;;;;;9.42;100.00;98983.78;5084210;28;20325;-74
2023/10/27 08:55:49;;;;;;;26.67;16.20;;;;;;;9.43;100.00;98987.28;5074969;28;20491;-73
2023/10/27 08:58:14;;;;;;;25.15;15.60;;;;;;;9.48;100.00;98983.28;5080745;28;20028;-73
2023/10/27 09:00:40;;;;;;;20.52;14.38;;;;;;;9.50;100.00;98985.84;5086475;28;20042;-73
2023/10/27 09:03:16;;;;;;;23.08;14.82;;;;;;;9.58;100.00;98985.28;5077210;28;20413;-73
2023/10/27 09:05:42;;;;;;;23.90;13.98;;;;;;;9.59;100.00;98986.97;5084857;28;20193;-73
2023/10/27 09:08:07;;;;;;;20.70;13.63;;;;;;;9.57;100.00;98992.41;5081103;28;20039;-73
2023/10/27 09:10:33;;;;;;;23.77;13.70;;;;;;;9.63;100.00;99001.69;5092393;28;20027;-73
2023/10/27 09:12:59;;;;;;;23.08;14.52;;;;;;;9.66;100.00;99007.63;5071970;28;20036;-73
2023/10/27 09:15:25;;;;;;;19.42;12.93;;;;;;;9.60;100.00;98999.25;5086654;28;20517;-73
2023/10/27 09:17:52;;;;;;;21.95;13.63;;;;;;;9.63;100.00;98997.22;5092720;28;20028;-73
2023/10/27 09:20:20;;;;;;;22.75;14.35;;;;;;;9.66;100.00;98994.34;5085212;28;20474;-73
2023/10/27 09:23:04;;;;;;;22.80;14.52;;;;;;;9.69;100.00;99001.22;5074961;28;20024;-74
2023/10/27 09:25:32;;;;;;;26.40;15.80;;;;;;;9.72;100.00;98995.69;5088384;28;20166;-74
2023/10/27 09:28:02;;;;;;;22.92;14.85;;;;;;;9.69;100.00;98993.25;5079390;28;20032;-74
2023/10/27 09:30:30;;;;;;;27.10;15.45;;;;;;;9.76;100.00;98997.13;5076994;28;20032;-74
2023/10/27 09:33:13;;;;;;;27.83;16.23;;;;;;;9.80;100.00;98990.63;5077807;28;20038;-73
2023/10/27 09:35:38;;;;;;;33.80;18.48;;;;;;;9.85;100.00;99001.72;5077257;28;20161;-73
2023/10/27 09:38:04;;;;;;;32.72;18.58;;;;;;;9.90;100.00;99004.88;5074468;28;20111;-74
2023/10/27 09:40:30;;;;;;;35.08;19.58;;;;;;;9.95;100.00;99010.69;5091929;28;20106;-73
2023/10/27 09:43:01;;;;;;;33.63;19.55;;;;;;;10.01;100.00;99006.72;5087831;28;20024;-73
2023/10/27 09:45:28;;;;;;;36.28;20.05;;;;;;;10.09;100.00;99008.78;5076827;28;20452;-73
2023/10/27 09:48:12;;;;;;;38.25;22.55;;;;;;;10.21;100.00;99006.00;5086499;28;20036;-73
2023/10/27 09:50:44;;;;;;;43.30;21.80;;;;;;;10.22;100.00;98999.72;5081166;28;20445;-73
2023/10/27 09:53:11;;;;;;;42.97;22.73;;;;;;;10.27;100.00;99007.34;5076083;28;20025;-73
2023/10/27 09:55:36;;;;;;;38.92;21.98;;;;;;;10.27;100.00;99001.19;5080319;28;20024;-73
2023/10/27 09:58:03;;;;;;;36.40;20.73;;;;;;;10.22;100.00;99006.84;5069802;28;20077;-74
2023/10/27 10:00:30;;;;;;;32.55;20.77;;;;;;;10.12;100.00;99019.19;5079917;28;20039;-74
2023/10/27 10:02:57;;;;;;;33.80;21.25;;;;;;;10.00;100.00;99017.47;5090027;28;20019;-72
2023/10/27 10:05:26;;;;;;;35.33;21.52;;;;;;;10.03;100.00;99014.56;5079265;28;20033;-74
2023/10/27 10:07:56;;;;;;;35.95;20.77;;;;;;;9.95;100.00;99015.19;5072670;28;20031;-72
2023/10/27 10:10:29;;;;;;;31.00;18.35;;;;;;;9.90;100.00;99031.44;5081268;28;20023;-74
2023/10/27 10:13:00;;;;;;;29.63;17.65;;;;;;;9.81;100.00;99032.16;5083098;28;20108;-73
2023/10/27 10:15:27;;;;;;;29.60;16.95;;;;;;;9.81;100.00;99034.81;5078653;28;20044;-75
2023/10/27 10:17:53;;;;;;;39.72;20.05;;;;;;;9.76;100.00;99026.34;5074923;28;20538;-76
2023/10/27 10:20:50;;;;;;;41.67;20.75;;;;;;;9.82;100.00;99039.16;5077386;28;20803;-75
2023/10/27 10:23:16;;;;;;;50.00;22.45;;;;;;;9.80;100.00;99032.28;5095553;27;20081;-78
2023/10/27 10:25:54;;;;;;;30.30;17.42;;;;;;;9.80;100.00;99045.56;5075024;28;20055;-77
2023/10/27 10:28:19;;;;;;;28.35;16.25;;;;;;;9.73;100.00;99040.72;5078918;28;20027;-74
2023/10/27 10:31:08;;;;;;;31.00;17.58;;;;;;;9.72;100.00;99038.19;5085680;28;20038;-73
2023/10/27 10:33:34;;;;;;;35.03;17.17;;;;;;;9.81;100.00;99037.47;5083538;28;20051;-74
2023/10/27 10:36:14;;;;;;;30.65;17.77;;;;;;;9.78;100.00;99042.16;5084652;28;20038;-73
2023/10/27 10:39:03;;;;;;;34.97;18.83;;;;;;;9.83;100.00;99032.06;5079414;28;20067;-72
2023/10/27 10:41:41;;;;;;;31.75;19.48;;;;;;;9.79;100.00;99041.22;5081004;28;20032;-73
2023/10/27 10:44:13;;;;;;;42.72;22.10;;;;;;;9.79;100.00;99035.91;5081339;28;20035;-73
2023/10/27 10:46:40;;;;;;;38.73;22.23;;;;;;;9.82;100.00;99038.31;5080855;28;20299;-72
2023/10/27 10:49:06;;;;;;;41.45;22.67;;;;;;;9.87;100.00;99030.88;5079763;28;20354;-73
2023/10/27 10:51:40;;;;;;;40.95;23.45;;;;;;;9.91;100.00;99035.81;5078961;28;20028;-74
2023/10/27 10:54:11;;;;;;;39.30;22.73;;;;;;;10.00;100.00;99033.41;5074854;28;20054;-73
2023/10/27 10:56:37;;;;;;;41.60;22.92;;;;;;;10.08;100.00;99034.53;5083259;28;20046;-73
2023/10/27 10:59:05;;;;;;;40.92;23.65;;;;;;;10.12;100.00;99030.66;5075695;28;20546;-72
2023/10/27 11:01:31;;;;;;;38.65;23.75;;;;;;;10.11;100.00;99028.09;5082149;28;20031;-73
2023/10/27 11:03:58;;;;;;;43.58;24.65;;;;;;;10.20;100.00;99033.56;5088571;28;20605;-74
2023/10/27 11:06:25;;;;;;;34.42;22.15;;;;;;;10.22;100.00;99020.16;5072031;28;20040;-73
2023/10/27 11:08:51;;;;;;;33.60;22.73;;;;;;;10.32;100.00;99028.25;5080477;28;20407;-74
2023/10/27 11:11:18;;;;;;;31.25;21.65;;;;;;;10.31;100.00;99027.44;5076035;28;20039;-75
2023/10/27 11:13:44;;;;;;;23.42;17.92;;;;;;;10.30;100.00;99020.41;5084584;28;20473;-74